Chaska, Minnesota
Current Conditions -  °F | °C
As of 10:53 PM on Wednesday 26 Nov 2014 (Local Time) from KFCM Reporting Station
Overcast Overcast  
Wind Chill:   Ceiling: 5500
Heat Index: 14°   Visibility: 10mi
Dew Point:   Wind: 13mph
Humidity: 56%   Direction: 330°NNW
Pressure: 30.36"   Gusts: NA
Location:  44.79°N, 93.6°W
Report Text: KFCM 270453Z 33011KT 10SM BKN055 OVC085 M10/M17 A3036 RMK AO2 SLP299 T11001172
Loading
Personal Weather Stations






























Interactive Weather Map New forecast layout! Learn more

10-Day Weather Forecast

Advertisements
Track Severe Weather on mobile